KDHT/DHT METAR and TAF weather

Enter ICAO airport designator
Station Type Date Time Source
KDHT METAR 2018/04/21 20:53 UTC NOAA

KDHT 212053Z AUTO 05015KT 10SM FEW023 FEW028 11/06 A3010 RMK AO2 SLP179 T01110056 55002


Station Type Date Time Source
KDHT Decoded METAR 2018/04/21 20:53 UTC NOAA

DALHART MUNICIPAL AIRPORT, TX, United States (KDHT) 36-01N 102-33W 1217M
Apr 21, 2018 - 04:53 PM EDT / 2018.04.21 2053 UTC
Wind: from the NE (050 degrees) at 17 MPH (15 KT):0
Visibility: 10 mile(s):0
Sky conditions: mostly clear
Temperature: 52.0 F (11.1 C)
Dew Point: 42.1 F (5.6 C)
Relative Humidity: 68%
Pressure (altimeter): 30.1 in. Hg (1019 hPa)
Pressure tendency: 0.01 inches (0.2 hPa) lower than three hours ago
ob: KDHT 212053Z AUTO 05015KT 10SM FEW023 FEW028 11/06 A3010 RMK AO2 SLP179 T01110056 55002
cycle: 21

Station Type Date Time Source
KDHT TAF 2018/04/21 18:42 UTC NOAA

TAF KDHT 211741Z 2118/2218 03013KT P6SM OVC007
FM211900 01015G20KT P6SM OVC012
FM212100 02015G20KT P6SM BKN035
FM220600 33004KT P6SM OVC007
FM221500 34009KT P6SM SCT015


Example: see airport list